createdAt,value
2022-08-04T00:04:58.076Z,72.7
2022-08-04T00:35:15.371Z,74.9
2022-08-04T01:05:37.663Z,77.2
2022-08-04T01:35:53.892Z,78.9
2022-08-04T02:06:11.295Z,80.80001
2022-08-04T02:36:29.065Z,81.4
2022-08-04T03:06:46.454Z,81.90001
2022-08-04T03:37:03.178Z,84.00001
2022-08-04T04:07:34.135Z,82.3
2022-08-04T04:37:48.704Z,82.7
2022-08-04T05:08:44.251Z,81.4
2022-08-04T05:38:32.962Z,75.7
2022-08-04T06:08:52.595Z,72.4
2022-08-04T06:39:16.466Z,62.3
2022-08-04T07:09:41.436Z,57.3
2022-08-04T07:40:05.064Z,54.6
2022-08-04T08:10:26.024Z,49.3
2022-08-04T08:40:56.394Z,42.1
2022-08-04T09:11:19.614Z,39.3
2022-08-04T09:41:49.160Z,38.1
2022-08-04T10:12:09.804Z,35.5
2022-08-04T10:42:32.461Z,33.4
2022-08-04T11:12:52.210Z,32.5
2022-08-04T11:43:11.578Z,32.7
2022-08-04T12:13:33.737Z,28.4
2022-08-04T12:43:55.543Z,26.5
2022-08-04T13:14:17.656Z,29.7
2022-08-04T13:44:21.309Z,28.1
2022-08-04T14:14:29.579Z,31.2
2022-08-04T14:44:46.638Z,30.8
2022-08-04T15:15:26.714Z,32.2
2022-08-04T15:46:33.275Z,34.6
2022-08-04T16:15:48.624Z,35.5
2022-08-04T16:46:09.338Z,34.5
2022-08-04T17:16:27.667Z,36.2
2022-08-04T17:46:43.520Z,38.1
2022-08-04T18:17:00.698Z,39.5
2022-08-04T19:48:17.396Z,48.3
2022-08-04T20:18:36.550Z,52.4
2022-08-04T20:48:48.476Z,54.5
2022-08-04T21:19:13.895Z,55.5
2022-08-04T21:49:30.148Z,60.5
2022-08-04T22:19:55.289Z,60.2
2022-08-04T22:50:27.652Z,61.1
2022-08-04T23:20:39.643Z,62.1
2022-08-04T23:50:55.197Z,72
